Time;durP1;ratioP1;P1;durP2;ratioP2;P2;SDS_P1;SDS_P2;PMS_P1;PMS_P2;Temp;Humidity;BMP_temperature;BMP_pressure;BME280_temperature;BME280_humidity;BME280_pressure;Samples;Min_cycle;Max_cycle;Signal;HPM_P1;HPM_P2
2024/02/08 00:01:30;;;;;;;0.80;0.80;;;0.80;99.90;;;;;;6170500;23;20455;-80
2024/02/08 00:03:55;;;;;;;0.88;0.88;;;-1.20;99.90;;;;;;6168584;23;20008;-81
2024/02/08 00:06:21;;;;;;;0.90;0.90;;;-0.30;99.90;;;;;;6169980;23;20016;-80
2024/02/08 00:08:47;;;;;;;1.33;1.23;;;0.10;99.90;;;;;;6171779;23;20039;-81
2024/02/08 00:11:13;;;;;;;0.80;0.80;;;-1.60;99.90;;;;;;6170398;23;20023;-80
2024/02/08 00:13:38;;;;;;;;;;;-0.70;99.90;;;;;;6151775;23;20111;-82
2024/02/08 00:16:04;;;;;;;0.80;0.80;;;-1.40;99.90;;;;;;6199023;23;19915;-81
2024/02/08 00:18:30;;;;;;;1.13;1.13;;;-1.40;99.90;;;;;;6194279;23;20491;-81
2024/02/08 00:20:56;;;;;;;0.80;0.80;;;-1.60;99.90;;;;;;6244764;23;20015;-81
2024/02/08 00:23:21;;;;;;;0.80;0.80;;;-1.60;99.90;;;;;;6217390;23;20031;-82
2024/02/08 00:25:47;;;;;;;0.80;0.80;;;-1.40;99.90;;;;;;6192304;23;20008;-81
2024/02/08 00:28:13;;;;;;;0.70;0.70;;;-1.30;99.90;;;;;;6216370;23;20460;-81
2024/02/08 00:30:40;;;;;;;;;;;-1.80;99.90;;;;;;6215580;23;20012;-82
2024/02/08 00:33:06;;;;;;;;;;;-1.50;99.90;;;;;;6216838;23;20375;-82
2024/02/08 00:35:33;;;;;;;0.80;0.80;;;-1.80;99.90;;;;;;6243479;23;19950;-82
2024/02/08 00:38:00;;;;;;;0.73;0.73;;;-1.80;99.90;;;;;;6191749;23;20348;-82
2024/02/08 00:40:27;;;;;;;0.60;0.60;;;-1.50;99.90;;;;;;6217746;23;20095;-82
2024/02/08 00:42:57;;;;;;;2.85;2.65;;;-0.20;99.90;;;;;;6246591;23;20018;-82
2024/02/08 00:45:23;;;;;;;0.77;0.77;;;-0.50;99.90;;;;;;6168034;23;20019;-80
2024/02/08 00:47:57;;;;;;;0.80;0.80;;;-0.50;99.90;;;;;;6215970;23;20016;-79
2024/02/08 00:50:29;;;;;;;0.80;0.80;;;-1.50;99.90;;;;;;6168940;23;20023;-79
2024/02/08 00:52:54;;;;;;;0.80;0.80;;;-1.50;99.90;;;;;;6215457;23;20004;-79
2024/02/08 00:55:20;;;;;;;0.80;0.80;;;-0.70;99.90;;;;;;6189590;23;20052;-80
2024/02/08 00:57:46;;;;;;;0.80;0.80;;;-1.60;99.90;;;;;;6164502;23;20038;-79
2024/02/08 01:00:13;;;;;;;0.70;0.70;;;-1.40;99.90;;;;;;6189041;23;20095;-79
2024/02/08 01:02:41;;;;;;;0.80;0.80;;;-1.40;99.90;;;;;;6190206;23;20505;-80
2024/02/08 01:05:07;;;;;;;0.85;0.85;;;-1.40;99.90;;;;;;6190167;23;20123;-79
2024/02/08 01:07:32;;;;;;;;;;;-1.40;99.90;;;;;;6164971;23;20020;-79
2024/02/08 01:09:59;;;;;;;0.80;0.80;;;-1.60;99.90;;;;;;6215168;23;19927;-79
2024/02/08 01:12:26;;;;;;;0.80;0.80;;;-1.30;99.90;;;;;;6214811;23;20043;-79
2024/02/08 01:14:53;;;;;;;0.80;0.80;;;-1.10;99.90;;;;;;6242266;23;20035;-79
2024/02/08 01:17:19;;;;;;;0.80;0.80;;;-1.60;99.90;;;;;;6189896;23;20395;-79
2024/02/08 01:19:46;;;;;;;0.93;0.93;;;-1.30;99.90;;;;;;6214124;23;20523;-80
2024/02/08 01:22:19;;;;;;;0.80;0.80;;;-1.40;99.90;;;;;;6189903;23;20012;-80
2024/02/08 01:24:48;;;;;;;0.80;0.80;;;-0.70;99.90;;;;;;6242120;23;20050;-79
2024/02/08 01:27:14;;;;;;;0.80;0.80;;;-1.20;99.90;;;;;;6190333;23;20371;-79
2024/02/08 01:29:50;;;;;;;0.80;0.80;;;-1.20;99.90;;;;;;6214232;23;20019;-80
2024/02/08 01:32:20;;;;;;;0.90;0.90;;;-1.40;99.90;;;;;;6236426;23;20054;-79
2024/02/08 01:34:45;;;;;;;1.40;1.40;;;-1.30;99.90;;;;;;6191115;23;20072;-80
2024/02/08 01:37:14;;;;;;;0.88;0.88;;;0.50;99.90;;;;;;6216325;23;20097;-79
2024/02/08 01:39:41;;;;;;;0.70;0.70;;;-1.20;99.90;;;;;;6142493;23;20012;-78
2024/02/08 01:42:16;;;;;;;0.80;0.80;;;-1.00;99.90;;;;;;6192150;23;20518;-79
2024/02/08 01:44:46;;;;;;;0.88;0.88;;;-1.20;99.90;;;;;;6191681;23;20020;-79
2024/02/08 01:47:28;;;;;;;0.75;0.75;;;-1.20;99.90;;;;;;6219996;23;20055;-80
2024/02/08 01:49:56;;;;;;;0.70;0.70;;;-0.10;99.90;;;;;;6216097;23;20102;-79
2024/02/08 01:52:22;;;;;;;1.00;1.00;;;-1.00;99.90;;;;;;6165865;23;20024;-80
2024/02/08 01:54:49;;;;;;;0.80;0.80;;;-0.90;99.90;;;;;;6167579;23;20109;-80
2024/02/08 01:57:15;;;;;;;0.80;0.80;;;-1.00;99.90;;;;;;6216959;23;20027;-80
2024/02/08 01:59:50;;;;;;;0.90;0.90;;;-0.40;99.90;;;;;;6216328;23;20047;-78
2024/02/08 02:02:16;;;;;;;0.90;0.90;;;-1.10;99.90;;;;;;6242817;23;20432;-79
2024/02/08 02:04:42;;;;;;;;;;;-0.40;99.90;;;;;;6191327;23;20325;-78
2024/02/08 02:07:08;;;;;;;0.80;0.80;;;-0.70;99.90;;;;;;6243090;23;19922;-79
2024/02/08 02:09:35;;;;;;;1.15;1.15;;;-0.60;99.90;;;;;;6190935;23;20030;-79
2024/02/08 02:12:10;;;;;;;0.80;0.80;;;-0.90;99.90;;;;;;6190576;23;20027;-79
2024/02/08 02:14:38;;;;;;;0.70;0.70;;;-0.60;99.90;;;;;;6214950;23;20023;-79
2024/02/08 02:17:26;;;;;;;0.80;0.80;;;-0.70;99.90;;;;;;6191948;23;20051;-78
2024/02/08 02:20:05;;;;;;;1.15;1.15;;;0.40;99.90;;;;;;6216025;23;20510;-79
2024/02/08 02:22:34;;;;;;;6.93;1.70;;;-0.50;99.90;;;;;;6215437;23;20016;-79
2024/02/08 02:25:05;;;;;;;0.73;0.73;;;-0.50;99.90;;;;;;6215756;23;20019;-79
2024/02/08 02:27:31;;;;;;;0.80;0.80;;;-0.40;99.90;;;;;;6215260;23;20016;-79
2024/02/08 02:29:59;;;;;;;0.80;0.80;;;-0.60;99.90;;;;;;6216361;23;20020;-78
2024/02/08 02:32:30;;;;;;;0.65;0.65;;;-0.40;99.90;;;;;;6216392;23;20020;-78
2024/02/08 02:34:56;;;;;;;1.95;1.85;;;-0.40;99.90;;;;;;6242939;23;20034;-80
2024/02/08 02:37:24;;;;;;;0.88;0.88;;;-0.70;99.90;;;;;;6216319;23;20115;-79
2024/02/08 02:39:50;;;;;;;0.90;0.90;;;-0.40;99.90;;;;;;6215788;23;20016;-78
2024/02/08 02:42:15;;;;;;;0.70;0.70;;;-0.30;99.90;;;;;;6243545;23;20379;-79
2024/02/08 02:44:42;;;;;;;0.70;0.70;;;1.20;99.90;;;;;;6166597;23;20546;-79
2024/02/08 02:47:13;;;;;;;0.90;0.90;;;-0.90;99.90;;;;;;6215545;23;20063;-78
2024/02/08 02:49:39;;;;;;;0.88;0.88;;;-0.80;99.90;;;;;;6167121;23;20031;-80
2024/02/08 02:52:07;;;;;;;0.80;0.80;;;0.90;99.90;;;;;;6243023;23;20008;-79
2024/02/08 02:54:34;;;;;;;0.80;0.80;;;-1.10;99.90;;;;;;6215493;23;20513;-80
2024/02/08 02:57:06;;;;;;;0.70;0.70;;;-1.00;99.90;;;;;;6242947;23;20019;-80
2024/02/08 02:59:31;;;;;;;0.80;0.80;;;0.50;99.90;;;;;;6214802;23;20016;-78
2024/02/08 03:01:57;;;;;;;0.95;0.95;;;-0.40;99.90;;;;;;6242619;23;20490;-78
2024/02/08 03:04:23;;;;;;;;;;;-1.10;99.90;;;;;;6191315;23;20110;-78
2024/02/08 03:06:53;;;;;;;0.77;0.77;;;-0.10;99.90;;;;;;6220260;23;19915;-82
2024/02/08 03:09:30;;;;;;;0.80;0.80;;;-1.20;99.90;;;;;;6195925;23;20583;-81
2024/02/08 03:11:59;;;;;;;0.70;0.70;;;-0.80;99.90;;;;;;6221274;23;20090;-82
2024/02/08 03:14:25;;;;;;;0.70;0.70;;;-0.70;99.90;;;;;;6219056;23;20113;-83
2024/02/08 03:17:00;;;;;;;0.80;0.80;;;-0.80;99.90;;;;;;6247084;23;20105;-82
2024/02/08 03:19:30;;;;;;;0.60;0.60;;;-0.60;99.90;;;;;;6222767;23;20027;-82
2024/02/08 03:21:56;;;;;;;0.70;0.70;;;-0.50;99.90;;;;;;6220407;23;20052;-83
2024/02/08 03:24:24;;;;;;;0.80;0.80;;;-0.70;99.90;;;;;;6218729;23;20044;-82
2024/02/08 03:26:49;;;;;;;0.70;0.70;;;0.90;99.90;;;;;;6244877;23;20020;-82
2024/02/08 03:29:16;;;;;;;0.75;0.75;;;-0.70;99.90;;;;;;6218196;23;20027;-81
2024/02/08 03:31:47;;;;;;;0.80;0.80;;;-0.30;99.90;;;;;;6194321;23;20023;-82
2024/02/08 03:34:23;;;;;;;0.70;0.70;;;-0.30;99.90;;;;;;6219663;23;20031;-82
2024/02/08 03:36:50;;;;;;;0.70;0.70;;;0.70;99.90;;;;;;6244752;23;20130;-82
2024/02/08 03:39:25;;;;;;;0.80;0.80;;;-0.40;99.90;;;;;;6220752;23;20332;-82
2024/02/08 03:42:01;;;;;;;0.70;0.70;;;-0.40;99.90;;;;;;6245726;23;20091;-82
2024/02/08 03:44:31;;;;;;;0.70;0.70;;;-0.40;99.90;;;;;;6194726;23;20716;-82
2024/02/08 03:47:04;;;;;;;0.80;0.80;;;-0.60;99.90;;;;;;6172089;23;20023;-83
2024/02/08 03:49:35;;;;;;;0.75;0.75;;;-0.50;99.90;;;;;;6221875;23;20025;-82
2024/02/08 03:52:02;;;;;;;0.80;0.80;;;-0.80;99.90;;;;;;6246240;23;20020;-82
2024/02/08 03:54:31;;;;;;;0.70;0.70;;;-0.50;99.90;;;;;;6220712;23;20086;-81
2024/02/08 03:57:04;;;;;;;0.90;0.90;;;-0.60;99.90;;;;;;6192906;23;20054;-82
2024/02/08 03:59:32;;;;;;;0.80;0.80;;;-0.60;99.90;;;;;;6220290;23;20100;-82
2024/02/08 04:02:05;;;;;;;0.80;0.80;;;-0.90;99.90;;;;;;6194667;23;20012;-82
2024/02/08 04:04:53;;;;;;;0.73;0.73;;;-0.20;99.90;;;;;;6198375;23;20375;-82
2024/02/08 04:07:22;;;;;;;0.75;0.75;;;-0.40;99.90;;;;;;6194412;23;20020;-81
2024/02/08 04:09:55;;;;;;;0.77;0.77;;;-0.70;99.90;;;;;;6192630;23;20082;-82
2024/02/08 04:53:31;;;;;;;0.75;0.75;;;-0.70;99.90;;;;;;6197159;23;20670;-81
2024/02/08 04:54:02;;;;;;;0.70;0.70;;;-0.20;99.90;;;;;;6215012;23;20016;-81
2024/02/08 04:56:31;;;;;;;0.70;0.70;;;-1.10;99.90;;;;;;6216347;23;20081;-80
2024/02/08 04:58:58;;;;;;;0.77;0.77;;;-1.10;99.90;;;;;;6190280;23;20048;-81
2024/02/08 05:01:26;;;;;;;0.80;0.80;;;-1.00;99.90;;;;;;6190314;23;20018;-80
2024/02/08 05:03:52;;;;;;;0.75;0.75;;;-0.50;99.90;;;;;;6242542;23;20054;-80
2024/02/08 05:06:21;;;;;;;0.85;0.85;;;-1.20;99.90;;;;;;6220435;23;20020;-80
2024/02/08 05:08:57;;;;;;;0.65;0.65;;;0.40;99.90;;;;;;6248759;23;20131;-81
2024/02/08 05:11:23;;;;;;;0.80;0.80;;;-0.80;99.90;;;;;;6222645;23;20016;-81
2024/02/08 05:13:50;;;;;;;0.73;0.73;;;-1.10;99.90;;;;;;6225911;23;20090;-81
2024/02/08 05:16:16;;;;;;;;;;;-1.20;99.90;;;;;;6173716;23;20024;-81
2024/02/08 05:18:43;;;;;;;0.90;0.90;;;-0.90;99.90;;;;;;6220519;23;19919;-79
2024/02/08 05:21:13;;;;;;;0.80;0.80;;;-1.00;99.90;;;;;;6194259;23;20055;-79
2024/02/08 05:23:40;;;;;;;0.80;0.80;;;-1.00;99.90;;;;;;6195500;23;20086;-80
2024/02/08 05:26:18;;;;;;;0.80;0.80;;;-1.00;99.90;;;;;;6172172;23;20224;-80
2024/02/08 05:29:01;;;;;;;0.73;0.73;;;-0.70;99.90;;;;;;6243391;23;20023;-81
2024/02/08 05:31:27;;;;;;;0.70;0.70;;;0.20;99.90;;;;;;6249517;23;20016;-83
2024/02/08 05:33:56;;;;;;;0.90;0.90;;;-1.10;99.90;;;;;;6221728;23;20012;-81
2024/02/08 05:36:23;;;;;;;0.80;0.80;;;-1.20;99.90;;;;;;6222343;23;20067;-81
2024/02/08 05:38:52;;;;;;;1.48;1.38;;;0.50;99.90;;;;;;6221820;23;20016;-81
2024/02/08 05:41:21;;;;;;;0.60;0.60;;;0.20;99.90;;;;;;6249033;23;20023;-81
2024/02/08 05:43:51;;;;;;;0.80;0.80;;;-1.10;99.90;;;;;;6221752;23;20027;-81
2024/02/08 05:46:25;;;;;;;0.77;0.77;;;-0.80;99.90;;;;;;6195500;23;20093;-81
2024/02/08 05:49:03;;;;;;;;;;;0.70;99.90;;;;;;6224549;23;20375;-80
2024/02/08 05:51:31;;;;;;;0.80;0.80;;;-0.60;99.90;;;;;;6249511;23;20301;-82
2024/02/08 05:54:01;;;;;;;0.80;0.80;;;-0.60;99.90;;;;;;6221647;23;20039;-82
2024/02/08 05:56:33;;;;;;;0.70;0.70;;;-0.40;99.90;;;;;;6224088;23;20020;-82
2024/02/08 05:59:05;;;;;;;0.80;0.80;;;-0.60;99.90;;;;;;6223638;23;20356;-81
2024/02/08 06:01:47;;;;;;;0.70;0.70;;;-0.50;99.90;;;;;;6200586;23;20012;-82
2024/02/08 06:04:22;;;;;;;0.80;0.80;;;-0.30;99.90;;;;;;6222309;23;20024;-81
2024/02/08 06:07:05;;;;;;;0.73;0.73;;;-0.50;99.90;;;;;;6225020;23;20452;-81
2024/02/08 06:12:28;;;;;;;0.80;0.80;;;-0.40;99.90;;;;;;6247051;23;20043;-82
2024/02/08 06:15:00;;;;;;;0.60;0.60;;;-0.30;99.90;;;;;;6246429;23;20356;-81
2024/02/08 06:17:37;;;;;;;0.80;0.80;;;1.40;99.90;;;;;;6220804;23;20091;-80
2024/02/08 06:20:09;;;;;;;0.80;0.80;;;-0.10;99.90;;;;;;6220991;23;20031;-83
2024/02/08 06:22:39;;;;;;;0.70;0.70;;;0.00;99.90;;;;;;6196669;23;20016;-81
2024/02/08 06:25:24;;;;;;;0.80;0.80;;;0.10;99.90;;;;;;6194950;23;20012;-81
2024/02/08 06:27:56;;;;;;;0.90;0.90;;;0.10;99.90;;;;;;6223168;23;20103;-81
2024/02/08 06:30:25;;;;;;;0.73;0.73;;;0.50;99.90;;;;;;6194981;23;20531;-81
2024/02/08 06:33:16;;;;;;;0.70;0.70;;;0.00;99.90;;;;;;6221858;23;20471;-80
2024/02/08 06:35:46;;;;;;;0.80;0.80;;;-0.40;99.90;;;;;;6219799;23;20517;-82
2024/02/08 06:38:28;;;;;;;0.75;0.75;;;0.30;99.90;;;;;;6192779;23;20416;-80
2024/02/08 06:40:55;;;;;;;0.70;0.70;;;0.10;99.90;;;;;;6197109;23;20016;-80
2024/02/08 07:38:14;;;;;;;0.70;0.70;;;0.30;99.90;;;;;;6224669;23;20016;-79
2024/02/08 07:40:43;;;;;;;0.63;0.63;;;1.00;99.90;;;;;;6194937;23;20059;-78
2024/02/08 07:45:54;;;;;;;0.70;0.70;;;0.10;99.90;;;;;;6217388;23;20448;-79
2024/02/08 07:48:44;;;;;;;0.70;0.70;;;0.30;99.90;;;;;;6252215;23;20020;-81
2024/02/08 07:51:15;;;;;;;0.75;0.75;;;0.30;99.90;;;;;;6225475;23;20352;-81
2024/02/08 07:53:53;;;;;;;0.80;0.80;;;0.00;99.90;;;;;;6225585;23;20020;-80
2024/02/08 07:59:06;;;;;;;0.70;0.70;;;0.30;99.90;;;;;;6226334;23;20058;-82
2024/02/08 08:01:32;;;;;;;0.80;0.80;;;0.10;99.90;;;;;;6200741;23;20066;-85
2024/02/08 08:04:12;;;;;;;0.70;0.70;;;0.80;99.90;;;;;;6233411;23;20091;-83
2024/02/08 08:06:47;;;;;;;0.70;0.70;;;0.60;99.90;;;;;;6260783;23;20054;-81
2024/02/08 08:09:21;;;;;;;0.60;0.60;;;0.70;99.90;;;;;;6258052;23;20016;-85
2024/02/08 08:11:51;;;;;;;0.70;0.70;;;1.20;99.90;;;;;;6206609;23;20032;-82
2024/02/08 08:19:44;;;;;;;0.60;0.60;;;0.70;99.90;;;;;;6254574;23;20020;-83
2024/02/08 08:22:50;;;;;;;0.60;0.60;;;0.90;99.90;;;;;;6252412;23;20012;-83
2024/02/08 08:27:47;;;;;;;0.80;0.80;;;1.00;99.90;;;;;;6253402;23;20119;-82
2024/02/08 08:30:27;;;;;;;0.70;0.70;;;1.50;99.90;;;;;;6226765;23;20019;-82
2024/02/08 08:35:45;;;;;;;0.70;0.70;;;1.10;99.90;;;;;;6254151;23;20050;-82
2024/02/08 08:41:00;;;;;;;0.60;0.60;;;1.20;99.90;;;;;;6255039;23;20100;-82
2024/02/08 08:43:27;;;;;;;0.80;0.80;;;1.30;99.90;;;;;;6229493;23;20032;-83
2024/02/08 08:46:09;;;;;;;0.80;0.80;;;2.00;99.90;;;;;;6205107;23;20015;-82
2024/02/08 08:48:35;;;;;;;0.70;0.70;;;1.40;99.90;;;;;;6229404;23;20026;-82
2024/02/08 08:51:12;;;;;;;0.57;0.57;;;1.40;99.90;;;;;;6230596;23;20070;-81
2024/02/08 08:53:43;;;;;;;0.60;0.60;;;1.40;99.90;;;;;;6207888;23;20016;-81
2024/02/08 08:56:12;;;;;;;0.70;0.70;;;1.50;99.90;;;;;;6204657;23;20031;-83
2024/02/08 08:58:48;;;;;;;0.70;0.70;;;1.50;99.90;;;;;;6207157;23;20023;-81
2024/02/08 09:01:15;;;;;;;0.47;0.47;;;1.60;99.90;;;;;;6233644;23;20020;-81
2024/02/08 09:03:55;;;;;;;0.70;0.70;;;1.70;99.90;;;;;;6236599;23;20046;-82
2024/02/08 09:06:32;;;;;;;0.55;0.55;;;1.80;99.90;;;;;;6234002;23;20475;-82
2024/02/08 09:09:27;;;;;;;0.60;0.60;;;3.00;99.90;;;;;;6207801;23;20084;-82
2024/02/08 09:11:57;;;;;;;0.70;0.70;;;1.90;99.90;;;;;;6209292;23;20024;-82
2024/02/08 09:14:30;;;;;;;0.60;0.60;;;2.00;99.90;;;;;;6208211;23;20086;-81
2024/02/08 09:16:59;;;;;;;0.73;0.73;;;3.70;99.90;;;;;;6205525;23;20020;-80
2024/02/08 09:19:28;;;;;;;0.60;0.60;;;2.30;99.90;;;;;;6231336;23;20012;-81
2024/02/08 09:22:02;;;;;;;0.75;0.75;;;2.30;99.90;;;;;;6230284;23;20519;-81
2024/02/08 09:24:28;;;;;;;0.70;0.70;;;2.40;99.90;;;;;;6231995;23;20360;-81
2024/02/08 09:27:15;;;;;;;0.60;0.60;;;2.50;99.90;;;;;;6206652;23;20020;-82
2024/02/08 09:30:09;;;;;;;0.50;0.50;;;2.60;99.90;;;;;;6233318;23;20072;-82
2024/02/08 09:32:43;;;;;;;0.60;0.60;;;2.70;99.90;;;;;;6232283;23;20027;-82
2024/02/08 09:35:13;;;;;;;0.73;0.73;;;2.80;99.90;;;;;;6258741;23;20027;-81
2024/02/08 09:37:47;;;;;;;0.70;0.70;;;2.90;99.90;;;;;;6208191;23;20034;-82
2024/02/08 09:42:56;;;;;;;0.60;0.60;;;3.10;99.90;;;;;;6231520;23;20020;-82
2024/02/08 09:48:11;;;;;;;0.63;0.63;;;3.30;99.90;;;;;;6258605;23;20024;-81
2024/02/08 09:50:50;;;;;;;0.50;0.50;;;3.40;99.90;;;;;;6208762;23;20047;-81
2024/02/08 09:53:27;;;;;;;0.57;0.57;;;3.60;99.90;;;;;;6183306;23;20050;-82
2024/02/08 09:55:55;;;;;;;0.65;0.65;;;4.30;99.90;;;;;;6232537;23;20020;-81
2024/02/08 09:58:38;;;;;;;0.68;0.68;;;4.50;99.90;;;;;;6207059;23;20078;-82
2024/02/08 10:01:56;;;;;;;0.50;0.50;;;3.90;99.90;;;;;;6232214;23;20018;-81
2024/02/08 10:04:16;;;;;;;0.60;0.60;;;4.00;99.90;;;;;;6179527;23;20515;-82
2024/02/08 10:07:06;;;;;;;0.60;0.60;;;4.30;99.90;;;;;;6228557;23;20016;-82
2024/02/08 10:12:28;;;;;;;0.32;0.32;;;4.30;99.90;;;;;;6212853;23;20020;-82
2024/02/08 10:14:59;;;;;;;0.57;0.57;;;4.40;99.90;;;;;;6261017;23;20019;-82
2024/02/08 10:17:40;;;;;;;0.60;0.60;;;4.50;99.90;;;;;;6207932;23;20021;-81
2024/02/08 10:23:09;;;;;;;0.50;0.50;;;4.70;99.90;;;;;;6233603;23;20020;-82
2024/02/08 10:28:25;;;;;;;0.50;0.50;;;4.90;99.90;;;;;;6227729;23;20023;-80
2024/02/08 10:31:12;;;;;;;0.50;0.50;;;5.00;99.90;;;;;;6227786;23;20087;-82
2024/02/08 10:33:48;;;;;;;0.60;0.60;;;5.10;99.90;;;;;;6232590;23;20026;-82
2024/02/08 10:36:30;;;;;;;0.60;0.60;;;5.10;99.90;;;;;;6205624;23;20016;-82
2024/02/08 10:39:07;;;;;;;0.50;0.50;;;5.10;99.90;;;;;;6203835;23;20016;-81
2024/02/08 10:44:24;;;;;;;0.50;0.50;;;5.20;99.90;;;;;;6255697;23;20020;-82
2024/02/08 10:46:55;;;;;;;0.50;0.50;;;5.20;99.90;;;;;;6253006;23;20020;-83
2024/02/08 10:49:24;;;;;;;0.60;0.60;;;5.10;99.90;;;;;;6202658;23;20020;-81
2024/02/08 10:52:00;;;;;;;0.52;0.52;;;5.10;99.90;;;;;;6254461;23;20044;-82
2024/02/08 10:54:39;;;;;;;0.40;0.40;;;5.10;99.90;;;;;;6227292;23;20020;-84
2024/02/08 10:57:09;;;;;;;0.60;0.60;;;5.00;99.90;;;;;;6206806;23;20031;-82
2024/02/08 10:59:39;;;;;;;0.52;0.52;;;5.00;99.90;;;;;;6205118;23;20079;-80
2024/02/08 11:05:47;;;;;;;0.50;0.50;;;4.90;99.90;;;;;;6238158;23;20020;-82
2024/02/08 11:08:13;;;;;;;0.60;0.60;;;4.80;99.90;;;;;;6211764;23;20023;-82
2024/02/08 11:10:49;;;;;;;0.60;0.60;;;5.30;99.90;;;;;;6229268;23;20022;-83
2024/02/08 11:13:29;;;;;;;0.60;0.60;;;4.80;99.90;;;;;;6227461;23;20016;-83
2024/02/08 11:16:04;;;;;;;0.50;0.50;;;4.70;99.90;;;;;;6250720;23;20031;-84
2024/02/08 11:18:52;;;;;;;0.50;0.50;;;4.70;99.90;;;;;;6249305;23;20024;-82
2024/02/08 11:21:24;;;;;;;0.52;0.52;;;4.70;99.90;;;;;;6226183;23;20019;-81
2024/02/08 11:23:57;;;;;;;0.32;0.32;;;4.60;99.90;;;;;;6224808;23;20020;-83
2024/02/08 11:26:25;;;;;;;0.60;0.60;;;4.50;99.90;;;;;;6248069;23;20046;-86
2024/02/08 11:29:18;;;;;;;0.70;0.70;;;4.50;99.90;;;;;;6224905;23;20020;-85
2024/02/08 11:31:46;;;;;;;;;;;6.20;99.90;;;;;;6179339;23;20016;-83
2024/02/08 11:34:15;;;;;;;0.68;0.68;;;4.50;99.90;;;;;;6224666;23;20307;-82
2024/02/08 11:36:52;;;;;;;0.50;0.50;;;4.50;99.90;;;;;;6198752;23;20012;-85
2024/02/08 11:39:27;;;;;;;0.60;0.60;;;4.40;99.90;;;;;;6200375;23;20027;-84
2024/02/08 11:42:17;;;;;;;0.55;0.55;;;5.70;99.90;;;;;;6224874;23;20122;-83
2024/02/08 11:44:46;;;;;;;0.52;0.52;;;4.40;99.90;;;;;;6197301;23;20034;-84
2024/02/08 11:47:19;;;;;;;0.40;0.40;;;4.70;99.90;;;;;;6200765;23;20012;-85
2024/02/08 11:50:08;;;;;;;0.60;0.60;;;4.40;99.90;;;;;;6223113;23;20026;-84
2024/02/08 11:52:36;;;;;;;0.60;0.60;;;4.50;99.90;;;;;;6222163;23;20024;-84
2024/02/08 11:55:10;;;;;;;0.50;0.50;;;4.50;99.90;;;;;;6172683;23;20027;-85
2024/02/08 11:57:37;;;;;;;0.50;0.50;;;4.40;99.90;;;;;;6249677;23;20419;-85
2024/02/08 12:00:16;;;;;;;0.50;0.50;;;4.60;99.90;;;;;;6199577;23;20016;-84
2024/02/08 12:02:50;;;;;;;0.50;0.50;;;4.40;99.90;;;;;;6214641;23;20378;-86
2024/02/08 12:05:19;;;;;;;0.52;0.52;;;4.30;99.90;;;;;;6163823;23;20012;-83
2024/02/08 12:07:46;;;;;;;0.60;0.60;;;4.30;99.90;;;;;;6166935;23;20078;-83
2024/02/08 12:10:16;;;;;;;0.55;0.55;;;4.30;99.90;;;;;;6193706;23;20043;-85
2024/02/08 12:12:45;;;;;;;0.50;0.50;;;4.20;99.90;;;;;;6167719;23;20020;-84
2024/02/08 12:15:13;;;;;;;0.60;0.60;;;4.10;99.90;;;;;;6194171;23;20096;-84
2024/02/08 12:17:48;;;;;;;0.50;0.50;;;4.20;99.90;;;;;;6197355;23;20024;-85
2024/02/08 12:20:17;;;;;;;0.60;0.60;;;4.20;99.90;;;;;;6172168;23;20721;-87
2024/02/08 12:22:55;;;;;;;0.50;0.50;;;4.40;99.90;;;;;;6197730;23;20023;-84
2024/02/08 12:25:21;;;;;;;0.70;0.70;;;4.20;99.90;;;;;;6220884;23;20016;-86
2024/02/08 12:27:57;;;;;;;0.50;0.50;;;4.10;99.90;;;;;;6169637;23;20052;-81
2024/02/08 12:30:33;;;;;;;0.60;0.60;;;4.00;99.90;;;;;;6196973;23;20016;-86
2024/02/08 12:33:07;;;;;;;0.50;0.50;;;5.30;99.90;;;;;;6174498;23;20099;-83
2024/02/08 12:35:41;;;;;;;0.50;0.50;;;4.00;99.90;;;;;;6223313;23;20020;-83
2024/02/08 12:38:13;;;;;;;0.40;0.40;;;4.00;99.90;;;;;;6221416;23;20019;-85
2024/02/08 12:40:39;;;;;;;0.60;0.60;;;3.90;99.90;;;;;;6197964;23;20046;-83
2024/02/08 12:43:08;;;;;;;0.40;0.40;;;4.00;99.90;;;;;;6200077;23;20044;-86
2024/02/08 12:45:34;;;;;;;0.50;0.50;;;3.90;99.90;;;;;;6203752;23;20383;-85
2024/02/08 12:48:04;;;;;;;;;;;4.00;99.90;;;;;;6204331;23;20019;-83
2024/02/08 12:50:34;;;;;;;0.65;0.65;;;4.00;99.90;;;;;;6180541;23;19926;-85
2024/02/08 12:53:06;;;;;;;0.50;0.50;;;2.90;99.90;;;;;;6202373;23;20027;-84
2024/02/08 12:55:32;;;;;;;0.60;0.60;;;;;;;;;;6147746;23;20398;-83
2024/02/08 12:58:01;;;;;;;;;;;4.00;99.90;;;;;;6197445;23;20119;-83
2024/02/08 13:00:34;;;;;;;0.60;0.60;;;3.90;99.90;;;;;;6172235;23;20407;-86
2024/02/08 13:03:06;;;;;;;0.40;0.40;;;4.70;99.90;;;;;;6174477;23;20044;-86
2024/02/08 13:05:39;;;;;;;0.70;0.70;;;4.00;99.90;;;;;;6194638;23;20012;-84
2024/02/08 13:08:08;;;;;;;0.50;0.50;;;4.00;99.90;;;;;;6168885;23;20020;-82
2024/02/08 13:10:35;;;;;;;0.60;0.60;;;4.10;99.90;;;;;;6170243;23;20012;-81
2024/02/08 13:13:10;;;;;;;0.57;0.57;;;4.50;99.90;;;;;;6194866;23;20023;-86
2024/02/08 13:15:37;;;;;;;0.50;0.50;;;4.00;99.90;;;;;;6222682;23;20023;-82
2024/02/08 13:18:09;;;;;;;0.60;0.60;;;4.40;99.90;;;;;;6194608;23;20044;-85
2024/02/08 13:20:35;;;;;;;0.60;0.60;;;4.20;99.90;;;;;;6148528;23;20008;-83
2024/02/08 13:23:04;;;;;;;0.55;0.55;;;4.20;99.90;;;;;;6171324;23;20016;-82
2024/02/08 13:25:30;;;;;;;0.60;0.60;;;4.10;99.90;;;;;;6196121;23;20389;-83
2024/02/08 13:27:59;;;;;;;0.60;0.60;;;4.60;99.90;;;;;;6171049;23;20027;-80
2024/02/08 13:30:31;;;;;;;0.60;0.60;;;4.40;99.90;;;;;;6170779;23;20027;-82
2024/02/08 13:32:57;;;;;;;0.50;0.50;;;5.20;99.90;;;;;;6187150;23;20016;-84
2024/02/08 13:35:25;;;;;;;0.60;0.60;;;4.70;99.90;;;;;;6169005;23;20016;-83
2024/02/08 13:37:54;;;;;;;0.50;0.50;;;4.40;99.90;;;;;;6195215;23;20585;-85
2024/02/08 13:40:22;;;;;;;0.60;0.60;;;4.20;99.90;;;;;;6193777;23;20016;-81
2024/02/08 13:42:49;;;;;;;0.52;0.52;;;5.60;99.90;;;;;;6217341;23;20360;-80
2024/02/08 13:45:16;;;;;;;0.70;0.70;;;4.00;99.90;;;;;;6191820;23;20016;-80
2024/02/08 13:47:49;;;;;;;0.60;0.60;;;4.00;99.90;;;;;;6189415;23;20020;-80
2024/02/08 13:50:17;;;;;;;0.60;0.60;;;3.70;99.90;;;;;;6215958;23;20020;-81
2024/02/08 13:52:42;;;;;;;0.60;0.60;;;3.80;99.90;;;;;;6190304;23;20057;-80
2024/02/08 13:55:17;;;;;;;0.63;0.63;;;4.00;99.90;;;;;;6190593;23;20075;-84
2024/02/08 13:57:46;;;;;;;0.60;0.60;;;3.70;99.90;;;;;;6169283;23;20016;-81
2024/02/08 14:00:20;;;;;;;0.70;0.70;;;5.00;99.90;;;;;;6165647;23;20074;-81
2024/02/08 14:02:49;;;;;;;0.60;0.60;;;3.90;99.90;;;;;;6170694;23;20012;-81
2024/02/08 14:05:19;;;;;;;0.50;0.50;;;3.80;99.90;;;;;;6191109;23;20058;-79
2024/02/08 14:07:54;;;;;;;0.60;0.60;;;3.60;99.90;;;;;;6194542;23;20343;-83
2024/02/08 14:10:31;;;;;;;0.68;0.68;;;3.40;99.90;;;;;;6201283;23;20015;-83
2024/02/08 14:13:06;;;;;;;0.60;0.60;;;3.60;99.90;;;;;;6201038;23;20020;-84
2024/02/08 14:15:29;;;;;;;0.60;0.60;;;3.30;99.90;;;;;;6227304;22;20016;-81
2024/02/08 14:18:11;;;;;;;0.60;0.60;;;3.20;99.90;;;;;;6158106;23;20713;-81
2024/02/08 14:20:58;;;;;;;0.60;0.60;;;3.00;99.90;;;;;;6185555;23;20071;-81
2024/02/08 14:23:31;;;;;;;0.63;0.63;;;3.00;99.90;;;;;;6186494;23;20041;-82
2024/02/08 14:28:42;;;;;;;0.50;0.50;;;2.70;99.90;;;;;;6161012;23;20633;-82
2024/02/08 14:31:14;;;;;;;0.63;0.63;;;2.60;99.90;;;;;;6184321;23;20051;-81
2024/02/08 14:33:48;;;;;;;0.68;0.68;;;2.60;99.90;;;;;;6136175;23;20024;-81
2024/02/08 14:36:28;;;;;;;0.70;0.70;;;2.60;99.90;;;;;;6161850;23;20056;-81
2024/02/08 14:38:55;;;;;;;0.60;0.60;;;2.20;99.90;;;;;;6135187;23;20024;-79
2024/02/08 14:41:34;;;;;;;0.70;0.70;;;2.60;99.90;;;;;;6181382;23;20024;-80
2024/02/08 14:44:08;;;;;;;0.50;0.50;;;2.10;99.90;;;;;;6190456;23;20017;-81
2024/02/08 14:46:35;;;;;;;0.70;0.70;;;2.00;99.90;;;;;;6140823;23;20306;-81
2024/02/08 14:49:16;;;;;;;0.70;0.70;;;1.90;99.90;;;;;;6137381;23;20056;-81
2024/02/08 14:52:01;;;;;;;0.63;0.63;;;1.90;99.90;;;;;;6183134;23;20028;-80
2024/02/08 14:54:28;;;;;;;0.68;0.68;;;1.80;99.90;;;;;;6134370;23;20507;-81
2024/02/08 14:57:03;;;;;;;0.70;0.70;;;2.90;99.90;;;;;;6181553;23;20430;-81
2024/02/08 14:59:50;;;;;;;0.40;0.40;;;1.80;99.90;;;;;;6137018;23;20017;-80
2024/02/08 15:02:21;;;;;;;0.60;0.60;;;1.80;99.90;;;;;;6181690;23;20076;-80
2024/02/08 15:04:59;;;;;;;0.70;0.70;;;1.80;99.90;;;;;;6181973;23;20027;-81
2024/02/08 15:07:47;;;;;;;0.60;0.60;;;1.80;99.90;;;;;;6160614;23;20477;-80
2024/02/08 15:10:19;;;;;;;0.60;0.60;;;1.80;99.90;;;;;;6157319;23;20290;-80
2024/02/08 15:12:52;;;;;;;0.70;0.70;;;1.70;99.90;;;;;;6183214;23;20099;-79
2024/02/08 15:15:33;;;;;;;0.50;0.50;;;1.70;99.90;;;;;;6157832;23;20020;-80
2024/02/08 15:18:14;;;;;;;0.65;0.65;;;3.10;99.90;;;;;;6173240;23;20024;-81
2024/02/08 15:20:55;;;;;;;0.70;0.70;;;1.60;99.90;;;;;;6155373;23;20014;-80
2024/02/08 15:23:31;;;;;;;0.70;0.70;;;1.60;99.90;;;;;;6183931;23;20531;-80
2024/02/08 15:26:03;;;;;;;0.70;0.70;;;2.10;99.90;;;;;;6180948;23;20013;-81
2024/02/08 15:28:35;;;;;;;0.60;0.60;;;1.60;99.90;;;;;;6181602;23;20076;-80
2024/02/08 15:31:15;;;;;;;0.60;0.60;;;2.00;99.90;;;;;;6182895;23;20072;-79
2024/02/08 15:36:48;;;;;;;0.50;0.50;;;1.50;99.90;;;;;;6112474;23;20032;-78
2024/02/08 15:42:17;;;;;;;0.60;0.60;;;1.40;99.90;;;;;;6152638;23;20025;-78
2024/02/08 15:44:53;;;;;;;0.70;0.70;;;1.40;99.90;;;;;;6153764;23;20123;-79